Chippewa Valley Regional Airport Eau Claire US
ICAO: KEAU
IATA: EAU
Category: Medium
Scheduled Services: Yes

Elevation: 913 ft
TransAlt. 18000 ft.

Airport Communications:
MINNEAPOLIS APP/DEP:125.3
ASOS:119.675
GREEN BAY RDO:122.65
CTAF/UNICOM:123

KEAU Zoom In..

Runways:

(A) RW 04 length 8101 ft width 150 ft
---- / hdg 44

(B) RW 14 length 5000 ft width 100 ft
---- / hdg 138

(C) RW 22 length 8101 ft width 150 ft
ILS 109.50 / hdg 224

(D) RW 32 length 5000 ft width 100 ft
---- / hdg 318

Location; KEAU
Day. 15 / Time. 22.56 Zulu
* Altimeter: 29.91
* Temperature: 30° c. 86°f.
* Wind from: 270° Speed 08 kn.
Dewpoint: 22° c.
Visibility: 10 Statute Miles.
Clouds: Few 4400 ft.
Clouds: Scattered 6000 ft.

KEAU 152256Z 27008KT 10SM FEW044 SCT060 30/22 A2991 RMK AO2 SLP124 T03000217


Wind From 270°
Speed 08 kn.

 
 
jpsmedia.com for Web Design worldairports.se 2018   terms of use